Time;durP1;ratioP1;P1;durP2;ratioP2;P2;SDS_P1;SDS_P2;PMS_P1;PMS_P2;Temp;Humidity;BMP_temperature;BMP_pressure;BME280_temperature;BME280_humidity;BME280_pressure;Samples;Min_cycle;Max_cycle;Signal;HPM_P1;HPM_P2
2022/10/30 00:00:27;;;;;;;9.88;4.03;;;14.10;71.20;;;;;;5005701;28;20089;-63
2022/10/30 00:02:53;;;;;;;10.30;4.13;;;14.00;71.10;;;;;;5005544;28;20030;-62
2022/10/30 00:05:19;;;;;;;15.32;5.10;;;14.00;71.20;;;;;;5008349;28;20026;-63
2022/10/30 00:07:46;;;;;;;17.25;3.88;;;14.00;71.30;;;;;;5012286;28;20413;-63
2022/10/30 00:10:12;;;;;;;13.15;4.88;;;14.00;71.30;;;;;;5005899;28;20030;-61
2022/10/30 00:12:38;;;;;;;10.20;4.63;;;14.00;71.30;;;;;;5007887;28;20041;-63
2022/10/30 00:15:04;;;;;;;10.90;4.32;;;14.00;71.70;;;;;;5003037;28;20376;-63
2022/10/30 00:17:30;;;;;;;9.13;4.15;;;13.90;71.60;;;;;;5003426;28;20019;-62
2022/10/30 00:19:55;;;;;;;18.10;4.13;;;13.90;71.60;;;;;;5000872;28;20500;-62
2022/10/30 00:22:21;;;;;;;16.23;3.88;;;13.90;71.60;;;;;;4999940;28;20511;-64
2022/10/30 00:24:47;;;;;;;10.00;4.40;;;13.90;71.70;;;;;;5002372;28;20054;-63
2022/10/30 00:27:12;;;;;;;17.08;4.20;;;13.80;71.60;;;;;;5005208;28;20087;-62
2022/10/30 00:29:38;;;;;;;11.13;4.13;;;13.80;71.70;;;;;;5014330;28;20041;-62
2022/10/30 00:32:04;;;;;;;11.30;3.88;;;13.80;71.70;;;;;;5010206;28;20026;-62
2022/10/30 00:34:30;;;;;;;10.00;3.83;;;13.80;71.70;;;;;;5005817;28;20058;-62
2022/10/30 00:36:55;;;;;;;10.32;4.18;;;13.80;71.70;;;;;;5002657;28;20033;-63
2022/10/30 00:39:21;;;;;;;15.15;4.95;;;13.80;71.70;;;;;;5019824;28;20037;-62
2022/10/30 00:41:46;;;;;;;10.70;4.40;;;13.70;71.90;;;;;;5010871;28;20087;-62
2022/10/30 00:44:31;;;;;;;11.90;4.10;;;13.70;72.20;;;;;;5006638;28;20491;-61
2022/10/30 00:46:58;;;;;;;10.18;3.47;;;13.70;73.30;;;;;;5005652;28;20030;-62
2022/10/30 00:49:24;;;;;;;18.58;4.25;;;13.70;72.60;;;;;;5008280;28;20046;-62
2022/10/30 00:51:53;;;;;;;8.90;3.38;;;13.70;72.60;;;;;;5002419;28;20029;-62
2022/10/30 00:54:20;;;;;;;10.80;4.10;;;13.70;72.60;;;;;;5001852;28;20563;-62
2022/10/30 00:56:47;;;;;;;13.00;3.95;;;13.70;72.40;;;;;;4999308;28;20019;-62
2022/10/30 00:59:19;;;;;;;14.15;4.22;;;13.70;72.50;;;;;;5000652;28;20023;-63
2022/10/30 01:01:46;;;;;;;16.15;4.28;;;13.70;72.70;;;;;;5001330;28;20109;-62
2022/10/30 01:04:12;;;;;;;18.02;4.22;;;13.60;72.40;;;;;;5003016;28;20393;-63
2022/10/30 01:06:41;;;;;;;10.25;3.97;;;13.60;72.20;;;;;;5002220;28;20042;-62
2022/10/30 01:09:07;;;;;;;18.67;4.32;;;13.60;72.10;;;;;;5002542;28;20030;-63
2022/10/30 01:11:33;;;;;;;10.43;3.63;;;13.60;72.10;;;;;;5005776;28;20022;-63
2022/10/30 01:14:04;;;;;;;12.02;4.03;;;13.50;72.00;;;;;;5001887;28;20027;-62
2022/10/30 01:17:09;;;;;;;8.18;3.80;;;13.50;72.10;;;;;;5003431;28;20073;-63
2022/10/30 01:20:05;;;;;;;12.75;3.58;;;13.50;72.70;;;;;;4999771;28;20443;-63
2022/10/30 01:22:51;;;;;;;8.40;3.22;;;13.50;72.80;;;;;;5011658;28;20018;-62
2022/10/30 01:26:01;;;;;;;14.00;3.83;;;13.40;72.30;;;;;;5008098;28;20057;-63
2022/10/30 01:28:55;;;;;;;9.73;3.45;;;13.40;72.20;;;;;;4943812;28;20023;-63
2022/10/30 01:31:27;;;;;;;10.45;3.65;;;13.40;72.60;;;;;;4957691;28;20039;-62
2022/10/30 01:34:25;;;;;;;10.07;3.70;;;13.40;72.10;;;;;;4958299;28;20094;-62
2022/10/30 01:37:06;;;;;;;14.73;4.22;;;13.30;72.20;;;;;;4963769;28;20567;-63
2022/10/30 01:39:36;;;;;;;9.70;3.20;;;13.30;72.00;;;;;;4969362;28;20045;-63
2022/10/30 01:42:09;;;;;;;11.63;2.97;;;13.30;72.00;;;;;;4964138;28;20038;-63
2022/10/30 01:44:36;;;;;;;12.60;3.67;;;13.30;72.50;;;;;;4968028;28;20034;-62
2022/10/30 01:47:27;;;;;;;12.52;3.45;;;13.20;73.00;;;;;;4963613;28;20039;-63
2022/10/30 01:50:21;;;;;;;8.70;3.53;;;13.20;72.50;;;;;;4967890;28;20070;-61
2022/10/30 01:53:21;;;;;;;8.50;3.50;;;13.20;72.20;;;;;;4962347;28;20035;-62
2022/10/30 01:56:08;;;;;;;5.72;3.13;;;13.20;72.00;;;;;;4976678;28;20064;-62
2022/10/30 01:58:45;;;;;;;16.30;3.78;;;13.10;71.70;;;;;;4980046;28;20039;-62
2022/10/30 02:01:12;;;;;;;11.80;3.55;;;13.10;71.70;;;;;;4974668;28;20039;-62
2022/10/30 02:03:38;;;;;;;14.07;3.35;;;13.00;71.70;;;;;;5008521;28;20168;-63
2022/10/30 02:06:04;;;;;;;7.18;2.63;;;13.00;71.80;;;;;;5008379;28;20137;-62
2022/10/30 02:08:30;;;;;;;8.20;2.88;;;12.90;71.70;;;;;;5018959;28;20034;-62
2022/10/30 02:10:56;;;;;;;7.13;2.75;;;12.90;71.70;;;;;;5017482;28;20033;-62
2022/10/30 02:13:22;;;;;;;6.00;2.80;;;12.90;71.80;;;;;;5018185;28;20030;-62
2022/10/30 02:15:48;;;;;;;9.63;3.10;;;12.90;71.80;;;;;;5022065;28;20032;-62
2022/10/30 02:18:14;;;;;;;7.13;2.80;;;12.80;71.80;;;;;;5024976;28;20493;-62
2022/10/30 02:20:40;;;;;;;6.93;3.28;;;12.80;71.80;;;;;;5023694;28;20030;-63
2022/10/30 02:23:07;;;;;;;5.63;3.15;;;12.80;71.70;;;;;;5023861;28;20508;-62
2022/10/30 02:25:34;;;;;;;8.10;2.97;;;12.70;71.60;;;;;;5024633;28;20069;-63
2022/10/30 02:27:59;;;;;;;9.82;2.58;;;12.70;71.60;;;;;;5021766;28;20072;-62
2022/10/30 02:30:25;;;;;;;9.60;3.10;;;12.70;71.60;;;;;;5018380;28;20034;-61
2022/10/30 02:32:51;;;;;;;7.45;2.67;;;12.70;71.60;;;;;;5015793;28;20122;-62
2022/10/30 02:35:17;;;;;;;9.07;2.72;;;12.60;71.50;;;;;;5011673;28;20125;-62
2022/10/30 02:37:42;;;;;;;5.80;2.80;;;12.60;71.50;;;;;;5010959;28;20081;-62
2022/10/30 02:40:09;;;;;;;8.82;2.80;;;12.60;71.60;;;;;;5007246;28;20045;-62
2022/10/30 02:42:35;;;;;;;4.43;2.42;;;12.60;71.70;;;;;;5009257;28;20085;-62
2022/10/30 02:45:00;;;;;;;8.13;2.50;;;12.50;71.70;;;;;;5011780;28;20042;-63
2022/10/30 02:47:27;;;;;;;5.75;2.38;;;12.50;71.80;;;;;;5014595;28;20485;-63
2022/10/30 02:49:56;;;;;;;6.68;2.65;;;12.50;71.90;;;;;;4985091;28;20037;-63
2022/10/30 02:52:22;;;;;;;7.60;2.50;;;12.40;72.60;;;;;;5001731;28;20030;-62
2022/10/30 02:54:48;;;;;;;6.57;2.47;;;12.50;72.00;;;;;;5005877;28;20070;-62
2022/10/30 02:57:13;;;;;;;8.38;2.63;;;12.40;71.90;;;;;;5006651;28;20789;-62
2022/10/30 02:59:39;;;;;;;8.30;2.70;;;12.40;71.90;;;;;;5015988;28;20497;-62
2022/10/30 03:02:06;;;;;;;8.23;3.03;;;12.40;71.90;;;;;;5010144;28;20042;-62
2022/10/30 03:04:33;;;;;;;8.98;2.70;;;12.40;71.90;;;;;;5011104;28;20039;-63
2022/10/30 03:06:58;;;;;;;5.38;2.38;;;12.30;71.90;;;;;;5007264;28;20046;-63
2022/10/30 03:09:24;;;;;;;8.00;2.63;;;12.30;72.00;;;;;;5008730;28;20030;-61
2022/10/30 03:11:49;;;;;;;8.20;2.65;;;12.20;71.90;;;;;;5013570;28;20030;-61
2022/10/30 03:14:15;;;;;;;11.40;3.60;;;12.20;72.00;;;;;;5011927;28;20030;-62
2022/10/30 03:16:41;;;;;;;4.85;3.05;;;12.20;72.10;;;;;;5006863;28;20090;-62
2022/10/30 03:19:07;;;;;;;9.07;3.38;;;12.20;72.20;;;;;;5007925;28;20675;-62
2022/10/30 03:21:32;;;;;;;10.32;2.92;;;12.10;72.20;;;;;;5006209;28;20033;-62
2022/10/30 03:23:58;;;;;;;6.07;3.08;;;12.10;72.30;;;;;;5011482;28;20420;-62
2022/10/30 03:26:24;;;;;;;8.80;2.88;;;12.10;72.30;;;;;;5013510;28;20109;-62
2022/10/30 03:28:50;;;;;;;5.63;2.90;;;12.10;72.40;;;;;;5003523;28;20034;-62
2022/10/30 03:31:17;;;;;;;7.18;2.75;;;12.10;72.60;;;;;;5009060;28;20030;-62
2022/10/30 03:33:44;;;;;;;10.10;3.15;;;12.10;72.80;;;;;;5007337;28;20057;-63
2022/10/30 03:36:11;;;;;;;11.43;3.25;;;12.10;72.80;;;;;;5003321;28;20023;-62
2022/10/30 03:38:37;;;;;;;6.80;3.00;;;12.10;73.00;;;;;;5006090;28;20030;-62
2022/10/30 03:41:04;;;;;;;10.07;3.15;;;12.10;73.10;;;;;;5005026;28;20053;-63
2022/10/30 03:43:29;;;;;;;5.45;3.15;;;12.10;73.20;;;;;;5003819;28;20049;-62
2022/10/30 03:45:56;;;;;;;6.80;3.38;;;12.10;73.40;;;;;;5004856;28;20042;-63
2022/10/30 03:48:23;;;;;;;7.55;2.58;;;12.20;73.50;;;;;;5004951;28;20149;-62
2022/10/30 03:50:52;;;;;;;8.50;2.70;;;12.20;73.60;;;;;;4936737;28;20033;-63
2022/10/30 03:53:18;;;;;;;6.70;2.67;;;12.20;73.60;;;;;;4997263;28;20816;-63
2022/10/30 03:55:44;;;;;;;6.65;2.60;;;12.20;73.50;;;;;;5002418;28;20046;-62
2022/10/30 03:58:10;;;;;;;7.85;3.22;;;12.20;73.50;;;;;;5006581;28;20038;-62
2022/10/30 04:00:36;;;;;;;8.40;2.83;;;12.30;73.60;;;;;;5007114;28;20026;-62
2022/10/30 04:03:06;;;;;;;8.88;2.90;;;12.30;73.60;;;;;;5006122;28;20034;-62
2022/10/30 04:05:31;;;;;;;7.78;2.70;;;12.30;73.60;;;;;;5006152;28;20089;-63
2022/10/30 04:07:59;;;;;;;7.70;2.60;;;12.30;73.50;;;;;;5003728;28;20030;-65
2022/10/30 04:10:25;;;;;;;10.43;2.53;;;12.30;73.60;;;;;;5010906;28;20028;-63
2022/10/30 04:12:53;;;;;;;6.72;2.88;;;12.40;73.50;;;;;;5013338;28;20030;-62
2022/10/30 04:15:19;;;;;;;10.85;2.53;;;12.30;73.30;;;;;;5002733;28;20034;-62
2022/10/30 04:17:51;;;;;;;5.22;2.20;;;12.40;73.30;;;;;;5002679;28;20031;-62
2022/10/30 04:20:18;;;;;;;5.85;2.70;;;12.30;73.20;;;;;;5000251;28;20090;-63
2022/10/30 04:22:44;;;;;;;12.27;2.17;;;12.30;73.00;;;;;;5011544;28;20508;-62
2022/10/30 04:25:10;;;;;;;5.60;2.85;;;12.30;73.00;;;;;;5002688;28;20053;-63
2022/10/30 04:27:43;;;;;;;4.20;2.30;;;12.30;73.00;;;;;;5008195;28;20046;-62
2022/10/30 04:30:10;;;;;;;19.60;2.95;;;12.30;73.20;;;;;;4999876;28;20057;-62
2022/10/30 04:32:36;;;;;;;14.93;2.70;;;12.30;73.00;;;;;;5003246;28;20085;-62
2022/10/30 04:35:03;;;;;;;13.30;2.88;;;12.20;73.10;;;;;;5005980;28;20030;-62
2022/10/30 04:37:29;;;;;;;9.40;3.00;;;12.30;73.20;;;;;;5007575;28;20030;-61
2022/10/30 04:39:54;;;;;;;6.15;2.55;;;12.20;73.30;;;;;;5006611;28;20038;-61
2022/10/30 04:42:20;;;;;;;7.50;2.95;;;12.20;73.40;;;;;;5002120;28;20034;-63
2022/10/30 04:44:46;;;;;;;9.70;2.90;;;12.20;73.60;;;;;;4999680;28;20032;-63
2022/10/30 04:47:11;;;;;;;11.02;3.13;;;12.20;73.70;;;;;;5002747;28;20095;-63
2022/10/30 04:49:37;;;;;;;11.27;3.17;;;12.20;73.90;;;;;;5010025;28;20030;-61
2022/10/30 04:52:03;;;;;;;10.60;3.33;;;12.20;74.70;;;;;;4996360;28;20038;-63
2022/10/30 04:54:28;;;;;;;9.82;3.53;;;12.20;74.10;;;;;;4999929;28;20081;-63
2022/10/30 04:56:54;;;;;;;24.25;3.85;;;12.20;74.20;;;;;;5006553;28;20026;-63
2022/10/30 04:59:20;;;;;;;13.98;4.43;;;12.20;74.40;;;;;;5005431;28;20046;-62
2022/10/30 05:01:45;;;;;;;19.35;4.40;;;12.20;74.60;;;;;;5003942;28;20519;-62
2022/10/30 05:04:11;;;;;;;17.40;4.68;;;12.20;74.90;;;;;;5004669;28;20504;-62
2022/10/30 05:06:37;;;;;;;13.93;4.22;;;12.20;75.00;;;;;;4994744;28;20084;-63
2022/10/30 05:09:03;;;;;;;15.85;4.07;;;12.30;75.00;;;;;;5009704;28;20029;-62
2022/10/30 05:11:28;;;;;;;13.93;3.97;;;12.30;75.00;;;;;;5001579;28;20030;-62
2022/10/30 05:13:55;;;;;;;25.92;4.53;;;12.30;75.10;;;;;;5006685;28;20034;-61
2022/10/30 05:16:20;;;;;;;23.77;4.53;;;12.30;75.10;;;;;;5001096;28;20030;-62
2022/10/30 05:18:46;;;;;;;15.77;4.28;;;12.30;75.10;;;;;;5003712;28;20038;-62
2022/10/30 05:21:12;;;;;;;15.05;4.35;;;12.30;75.10;;;;;;5005029;28;20036;-62
2022/10/30 05:23:38;;;;;;;19.33;5.13;;;12.40;75.10;;;;;;5005926;28;20033;-63
2022/10/30 05:26:03;;;;;;;17.25;4.07;;;12.40;75.00;;;;;;5000498;28;20030;-62
2022/10/30 05:28:29;;;;;;;13.35;4.00;;;12.40;75.00;;;;;;4999233;28;20503;-63
2022/10/30 05:30:55;;;;;;;14.90;4.22;;;12.40;74.90;;;;;;5010387;28;20653;-63
2022/10/30 05:33:20;;;;;;;13.13;3.88;;;12.40;74.90;;;;;;5004996;28;20027;-63
2022/10/30 05:35:46;;;;;;;13.13;4.22;;;12.40;74.80;;;;;;5005680;28;20050;-64
2022/10/30 05:38:12;;;;;;;18.38;5.07;;;12.40;74.70;;;;;;5005346;28;20022;-62
2022/10/30 05:40:38;;;;;;;8.85;3.92;;;12.40;74.60;;;;;;5005642;28;20027;-62
2022/10/30 05:43:04;;;;;;;17.55;4.45;;;12.40;74.50;;;;;;5000579;28;20025;-63
2022/10/30 05:45:30;;;;;;;29.25;4.47;;;12.40;74.30;;;;;;5001632;28;20034;-62
2022/10/30 05:47:58;;;;;;;13.30;4.10;;;12.40;74.30;;;;;;5009650;28;20058;-63
2022/10/30 05:50:25;;;;;;;14.65;4.88;;;12.40;74.10;;;;;;5004890;28;20041;-62
2022/10/30 05:52:57;;;;;;;14.18;4.80;;;12.40;74.00;;;;;;5000991;28;20022;-63
2022/10/30 05:55:23;;;;;;;21.23;5.05;;;12.30;74.10;;;;;;5004210;28;20053;-62
2022/10/30 05:57:49;;;;;;;25.85;5.75;;;12.30;74.20;;;;;;5004357;28;20041;-62
2022/10/30 06:00:15;;;;;;;21.80;4.93;;;12.30;74.30;;;;;;5004108;28;20045;-62
2022/10/30 06:02:40;;;;;;;14.00;4.65;;;12.30;74.30;;;;;;5000339;28;20030;-62
2022/10/30 06:05:06;;;;;;;15.80;4.47;;;12.30;74.40;;;;;;4999970;28;20432;-62
2022/10/30 06:07:32;;;;;;;21.45;4.32;;;12.30;74.40;;;;;;5006269;28;20064;-62
2022/10/30 06:09:58;;;;;;;14.77;3.67;;;12.30;74.40;;;;;;5004836;28;20081;-63
2022/10/30 06:12:23;;;;;;;13.07;4.15;;;12.30;74.30;;;;;;5003074;28;20031;-61
2022/10/30 06:14:49;;;;;;;12.68;4.25;;;12.30;74.30;;;;;;5008677;28;20477;-62
2022/10/30 06:17:15;;;;;;;19.02;3.72;;;12.20;74.30;;;;;;5003200;28;20030;-62
2022/10/30 06:19:40;;;;;;;19.52;4.93;;;12.20;74.40;;;;;;5006988;28;20116;-62
2022/10/30 06:22:06;;;;;;;10.38;3.72;;;12.20;74.60;;;;;;5014472;28;20026;-62
2022/10/30 06:24:32;;;;;;;12.10;4.05;;;12.20;74.80;;;;;;5003051;28;20132;-64
2022/10/30 06:26:58;;;;;;;15.32;4.40;;;12.20;74.90;;;;;;5001945;28;20039;-62
2022/10/30 06:29:23;;;;;;;14.88;5.30;;;12.20;74.90;;;;;;5011127;28;20025;-62
2022/10/30 06:31:49;;;;;;;17.92;5.13;;;12.20;75.10;;;;;;5000486;28;20054;-63
2022/10/30 06:34:14;;;;;;;26.23;4.80;;;12.20;75.10;;;;;;5004834;28;20031;-61
2022/10/30 06:36:40;;;;;;;13.52;4.72;;;12.20;75.10;;;;;;5005746;28;20030;-64
2022/10/30 06:39:06;;;;;;;13.25;4.43;;;12.30;75.10;;;;;;5000716;28;20030;-62
2022/10/30 06:41:33;;;;;;;22.75;4.32;;;12.30;74.90;;;;;;4997726;28;20039;-64
2022/10/30 06:43:59;;;;;;;30.20;4.18;;;12.30;74.60;;;;;;5005265;28;20046;-62
2022/10/30 06:46:24;;;;;;;18.08;4.65;;;12.30;74.50;;;;;;5005003;28;20041;-63
2022/10/30 06:48:50;;;;;;;13.15;4.03;;;12.20;74.50;;;;;;5008803;28;21328;-62
2022/10/30 06:51:16;;;;;;;17.10;3.85;;;12.20;74.40;;;;;;4938029;28;20031;-64
2022/10/30 06:53:42;;;;;;;8.98;3.45;;;12.20;74.30;;;;;;4995059;28;20062;-65
2022/10/30 06:56:08;;;;;;;12.55;3.85;;;12.20;74.30;;;;;;5006493;28;20057;-62
2022/10/30 06:58:37;;;;;;;10.63;3.38;;;12.20;74.40;;;;;;5003980;28;20062;-62
2022/10/30 07:01:04;;;;;;;14.40;4.18;;;12.20;74.40;;;;;;5001315;28;20318;-62
2022/10/30 07:03:31;;;;;;;9.90;3.95;;;12.20;74.40;;;;;;5008533;28;20089;-63
2022/10/30 07:05:56;;;;;;;7.50;4.43;;;12.20;74.50;;;;;;5009820;28;20046;-61
2022/10/30 07:08:22;;;;;;;18.70;4.72;;;12.20;74.50;;;;;;5008792;28;20022;-63
2022/10/30 07:10:48;;;;;;;12.90;4.70;;;12.20;74.60;;;;;;5007730;28;20026;-63
2022/10/30 07:13:13;;;;;;;10.18;4.70;;;12.20;74.70;;;;;;5004373;28;20033;-63
2022/10/30 07:15:40;;;;;;;12.07;4.35;;;12.20;74.70;;;;;;5010471;28;20046;-63
2022/10/30 07:18:06;;;;;;;9.13;3.90;;;12.20;74.80;;;;;;5006545;28;20057;-63
2022/10/30 07:20:33;;;;;;;8.13;4.00;;;12.30;75.00;;;;;;5009571;28;20026;-64
2022/10/30 07:23:00;;;;;;;7.35;3.55;;;12.30;75.00;;;;;;5003658;28;20065;-63
2022/10/30 07:25:26;;;;;;;7.28;3.60;;;12.40;75.10;;;;;;5007976;28;20037;-63
2022/10/30 07:27:53;;;;;;;5.35;3.13;;;12.50;75.20;;;;;;5007955;28;20022;-62
2022/10/30 07:30:21;;;;;;;8.52;3.13;;;12.60;75.10;;;;;;5013186;28;20034;-64
2022/10/30 07:32:56;;;;;;;16.80;3.60;;;12.70;75.10;;;;;;5004402;28;20058;-61
2022/10/30 07:35:22;;;;;;;4.55;2.85;;;12.70;75.00;;;;;;5005994;28;20090;-65
2022/10/30 07:37:48;;;;;;;10.10;3.10;;;12.80;74.80;;;;;;5007656;28;20030;-62
2022/10/30 07:40:13;;;;;;;9.70;3.53;;;12.90;74.70;;;;;;5012220;28;20032;-62
2022/10/30 07:42:39;;;;;;;11.32;3.63;;;13.00;74.70;;;;;;5002881;28;20049;-64
2022/10/30 07:45:05;;;;;;;6.47;3.78;;;13.10;74.60;;;;;;5008144;28;20034;-63
2022/10/30 07:47:31;;;;;;;11.10;3.63;;;13.20;74.60;;;;;;5007335;28;20038;-63
2022/10/30 07:49:57;;;;;;;11.43;3.42;;;13.30;74.60;;;;;;5005190;28;20139;-63
2022/10/30 07:52:23;;;;;;;9.57;3.55;;;13.40;74.60;;;;;;5005519;28;20026;-62
2022/10/30 07:54:49;;;;;;;9.13;3.28;;;13.60;74.70;;;;;;5011540;28;20042;-64
2022/10/30 07:57:14;;;;;;;10.52;3.10;;;13.70;74.60;;;;;;5010895;28;20038;-62
2022/10/30 07:59:40;;;;;;;8.77;4.00;;;13.80;74.60;;;;;;5003285;28;20034;-62
2022/10/30 08:02:08;;;;;;;10.85;3.53;;;13.90;74.50;;;;;;5006382;28;20026;-62
2022/10/30 08:04:34;;;;;;;9.48;3.67;;;14.10;74.40;;;;;;5011288;28;20057;-62
2022/10/30 08:07:00;;;;;;;11.48;4.15;;;14.20;74.20;;;;;;4999755;28;20039;-62
2022/10/30 08:09:25;;;;;;;11.93;3.85;;;14.30;74.20;;;;;;5003692;28;20023;-63
2022/10/30 08:11:51;;;;;;;6.75;3.35;;;14.40;74.00;;;;;;5017371;28;20026;-62
2022/10/30 08:14:17;;;;;;;8.63;3.45;;;14.50;74.00;;;;;;5007146;28;20038;-62
2022/10/30 08:16:42;;;;;;;9.43;3.58;;;14.60;73.90;;;;;;5003903;28;20035;-62
2022/10/30 08:19:08;;;;;;;9.57;3.08;;;14.80;73.60;;;;;;4994570;28;20038;-62
2022/10/30 08:21:34;;;;;;;11.50;3.63;;;14.90;73.50;;;;;;5005888;28;20030;-62
2022/10/30 08:23:59;;;;;;;11.02;3.20;;;15.00;73.30;;;;;;5007216;28;20061;-62
2022/10/30 08:26:25;;;;;;;15.25;4.10;;;15.10;73.20;;;;;;5007371;28;20030;-63
2022/10/30 08:28:51;;;;;;;17.23;4.30;;;15.20;73.20;;;;;;5008944;28;20034;-62
2022/10/30 08:31:16;;;;;;;9.70;3.63;;;15.30;73.10;;;;;;5007303;28;20029;-62
2022/10/30 08:33:42;;;;;;;11.35;3.22;;;15.40;72.90;;;;;;5011350;28;20058;-64
2022/10/30 08:36:08;;;;;;;11.80;3.33;;;15.50;72.80;;;;;;5001798;28;20081;-64
2022/10/30 08:38:34;;;;;;;9.98;3.60;;;15.70;72.80;;;;;;5004193;28;20105;-64
2022/10/30 08:41:01;;;;;;;10.88;3.60;;;15.80;72.70;;;;;;5001542;28;20030;-62
2022/10/30 08:43:27;;;;;;;9.80;3.22;;;15.90;72.50;;;;;;5007857;28;20022;-62
2022/10/30 08:45:52;;;;;;;16.27;4.13;;;16.10;72.40;;;;;;5013615;28;20213;-64
2022/10/30 08:48:18;;;;;;;10.85;3.95;;;16.20;72.20;;;;;;5009173;28;20061;-63
2022/10/30 08:50:44;;;;;;;9.30;4.32;;;16.40;72.00;;;;;;4944487;28;20037;-62
2022/10/30 08:53:11;;;;;;;12.15;4.88;;;16.50;71.70;;;;;;5012646;28;20102;-63
2022/10/30 08:55:37;;;;;;;15.25;4.78;;;16.60;71.60;;;;;;5005566;28;20026;-62
2022/10/30 08:58:03;;;;;;;8.82;4.97;;;16.80;71.40;;;;;;5006434;28;20037;-62
2022/10/30 09:00:29;;;;;;;14.10;5.28;;;16.90;71.20;;;;;;5007192;28;20093;-63
2022/10/30 09:02:56;;;;;;;9.00;4.28;;;17.00;71.00;;;;;;5013201;28;20043;-64
2022/10/30 09:05:21;;;;;;;11.68;4.43;;;17.10;70.80;;;;;;5007469;28;20073;-62
2022/10/30 09:07:47;;;;;;;13.57;4.75;;;17.20;70.60;;;;;;5009833;28;20042;-63
2022/10/30 09:10:14;;;;;;;16.90;5.00;;;17.30;70.40;;;;;;5008572;28;20074;-65
2022/10/30 09:12:40;;;;;;;10.75;5.07;;;17.40;70.30;;;;;;5008072;28;20049;-62
2022/10/30 09:15:06;;;;;;;13.77;5.40;;;17.50;70.30;;;;;;5004737;28;20062;-63
2022/10/30 09:17:32;;;;;;;14.07;5.32;;;17.60;70.20;;;;;;5014146;28;20034;-62
2022/10/30 09:19:58;;;;;;;14.80;5.22;;;17.70;70.00;;;;;;5002155;28;20026;-63
2022/10/30 09:22:23;;;;;;;11.43;5.13;;;17.80;69.80;;;;;;5005581;28;20145;-63
2022/10/30 09:24:49;;;;;;;14.30;4.95;;;17.90;69.70;;;;;;4999147;28;20026;-63
2022/10/30 09:27:15;;;;;;;16.42;5.43;;;18.00;69.70;;;;;;5000684;28;20042;-63
2022/10/30 09:29:40;;;;;;;10.68;4.57;;;18.20;69.60;;;;;;5001090;28;20476;-63
2022/10/30 09:32:09;;;;;;;12.88;5.00;;;18.20;69.50;;;;;;5005253;28;20061;-63
2022/10/30 09:34:38;;;;;;;12.00;4.82;;;18.40;69.60;;;;;;5001461;28;20023;-62
2022/10/30 09:37:04;;;;;;;9.80;4.18;;;18.50;69.30;;;;;;5003343;28;20044;-63
2022/10/30 09:39:30;;;;;;;10.88;4.90;;;18.60;69.40;;;;;;5011499;28;20029;-65
2022/10/30 09:42:06;;;;;;;14.38;4.80;;;18.80;69.20;;;;;;5000919;28;20394;-65
2022/10/30 09:44:43;;;;;;;12.27;4.03;;;18.90;68.80;;;;;;4998134;28;20030;-64
2022/10/30 09:47:15;;;;;;;11.68;4.15;;;19.00;68.50;;;;;;4996103;28;20061;-64
2022/10/30 09:50:02;;;;;;;8.65;4.32;;;19.20;68.80;;;;;;4997470;28;20050;-64
2022/10/30 09:52:49;;;;;;;16.70;6.13;;;19.30;68.20;;;;;;5001576;28;20497;-63
2022/10/30 09:55:40;;;;;;;13.45;6.07;;;19.40;68.30;;;;;;5013015;28;20050;-64
2022/10/30 09:58:31;;;;;;;13.10;5.07;;;19.50;67.80;;;;;;5002351;28;20069;-64
2022/10/30 10:01:08;;;;;;;13.10;4.15;;;19.70;67.30;;;;;;5002507;28;20092;-64
2022/10/30 10:04:11;;;;;;;10.90;4.13;;;19.80;67.60;;;;;;5005495;28;20041;-64
2022/10/30 10:06:42;;;;;;;10.63;4.50;;;19.90;66.40;;;;;;4998327;28;20096;-65
2022/10/30 10:09:20;;;;;;;11.02;3.75;;;20.00;67.10;;;;;;5002870;28;20467;-63
2022/10/30 10:11:53;;;;;;;11.02;3.92;;;20.10;66.20;;;;;;4997863;28;20038;-62
2022/10/30 10:14:39;;;;;;;7.50;4.07;;;20.20;66.70;;;;;;5002875;28;20024;-63
2022/10/30 10:17:14;;;;;;;5.03;3.22;;;20.40;66.10;;;;;;4996478;28;20475;-64
2022/10/30 10:19:48;;;;;;;8.85;3.70;;;20.50;66.20;;;;;;5006047;28;20037;-62
2022/10/30 10:22:34;;;;;;;7.35;3.50;;;20.50;66.40;;;;;;4997459;28;20034;-63
2022/10/30 10:25:05;;;;;;;8.50;3.30;;;20.60;65.40;;;;;;5013118;28;20034;-63
2022/10/30 10:27:40;;;;;;;12.10;3.80;;;20.70;65.80;;;;;;5002016;28;20030;-63
2022/10/30 10:30:10;;;;;;;8.68;3.95;;;20.80;65.90;;;;;;4995252;28;20042;-64
2022/10/30 10:32:58;;;;;;;11.07;4.13;;;20.90;65.80;;;;;;4998493;28;20060;-63
2022/10/30 10:35:42;;;;;;;11.30;3.70;;;21.00;66.00;;;;;;5003912;28;20045;-62
2022/10/30 10:38:26;;;;;;;8.43;3.85;;;21.20;65.70;;;;;;5011083;28;20023;-63
2022/10/30 10:40:56;;;;;;;10.60;3.97;;;21.30;65.80;;;;;;5003407;28;20030;-64
2022/10/30 10:44:00;;;;;;;9.13;4.15;;;21.40;65.70;;;;;;5011650;28;20046;-63
2022/10/30 10:46:47;;;;;;;8.23;4.05;;;21.50;65.40;;;;;;5008789;28;20042;-64
2022/10/30 10:49:18;;;;;;;11.98;4.70;;;21.60;65.40;;;;;;5002902;28;20038;-64
2022/10/30 10:52:08;;;;;;;7.88;3.60;;;21.70;65.80;;;;;;5009104;28;20022;-64
2022/10/30 10:55:06;;;;;;;9.07;4.10;;;21.80;64.80;;;;;;5000948;28;20045;-64
2022/10/30 10:57:35;;;;;;;9.93;4.47;;;22.00;64.80;;;;;;5002703;28;20072;-63
2022/10/30 11:00:16;;;;;;;7.18;4.07;;;22.10;64.90;;;;;;5012807;28;20032;-63
2022/10/30 11:02:53;;;;;;;12.48;4.68;;;22.20;64.10;;;;;;4994465;28;20018;-63
2022/10/30 11:05:26;;;;;;;11.18;4.68;;;22.30;63.80;;;;;;5006632;28;20035;-63
2022/10/30 11:07:56;;;;;;;9.07;3.90;;;22.40;63.80;;;;;;5010592;28;20053;-63
2022/10/30 11:10:22;;;;;;;10.05;3.85;;;22.50;63.80;;;;;;5013886;28;20269;-63
2022/10/30 11:12:48;;;;;;;7.13;3.53;;;22.60;63.70;;;;;;4999846;28;20065;-63
2022/10/30 11:15:17;;;;;;;10.68;3.47;;;22.70;63.20;;;;;;5008230;28;20026;-63
2022/10/30 11:18:00;;;;;;;10.85;3.38;;;22.80;62.80;;;;;;5003369;28;20510;-63
2022/10/30 11:20:39;;;;;;;12.03;3.40;;;22.90;62.10;;;;;;5011413;28;20041;-63
2022/10/30 11:23:37;;;;;;;6.80;2.72;;;23.00;62.20;;;;;;5005145;28;20038;-63
2022/10/30 11:26:22;;;;;;;7.07;3.17;;;23.00;62.30;;;;;;5004246;28;20066;-63
2022/10/30 11:28:52;;;;;;;8.00;3.13;;;23.20;62.40;;;;;;4996180;28;20463;-63
2022/10/30 11:31:33;;;;;;;7.65;3.20;;;23.20;62.10;;;;;;5004196;28;20022;-64
2022/10/30 11:34:17;;;;;;;7.40;3.20;;;23.30;61.20;;;;;;5001131;28;20022;-63
2022/10/30 11:36:49;;;;;;;8.48;3.13;;;23.40;60.20;;;;;;5007974;28;20034;-63
2022/10/30 11:39:22;;;;;;;10.02;3.03;;;23.50;61.10;;;;;;5008549;28;20038;-64
2022/10/30 11:42:14;;;;;;;11.05;2.95;;;23.60;61.00;;;;;;5001527;28;20081;-64
2022/10/30 11:44:47;;;;;;;12.25;3.22;;;23.60;59.70;;;;;;5005293;28;20029;-63
2022/10/30 11:47:14;;;;;;;10.10;3.42;;;23.60;60.60;;;;;;5006343;28;20047;-63
2022/10/30 11:49:58;;;;;;;10.70;3.28;;;23.70;60.50;;;;;;4981443;28;20030;-64
2022/10/30 11:52:25;;;;;;;8.40;3.30;;;23.80;59.70;;;;;;5006505;28;20383;-63
2022/10/30 11:55:20;;;;;;;8.25;2.92;;;23.90;60.20;;;;;;5002623;28;20053;-63
2022/10/30 11:57:50;;;;;;;13.50;3.38;;;23.90;59.40;;;;;;4999386;28;20094;-66
2022/10/30 12:00:19;;;;;;;9.35;3.35;;;24.10;59.80;;;;;;5005783;28;20026;-63
2022/10/30 12:02:47;;;;;;;7.47;3.28;;;24.10;59.50;;;;;;4997039;28;20045;-63
2022/10/30 12:05:34;;;;;;;7.45;3.10;;;24.20;59.50;;;;;;5009435;28;20044;-64
2022/10/30 12:08:06;;;;;;;8.93;3.33;;;24.30;58.70;;;;;;5009836;28;20061;-64
2022/10/30 12:10:40;;;;;;;8.57;3.33;;;24.40;58.80;;;;;;5002952;28;20458;-63
2022/10/30 12:13:11;;;;;;;6.57;3.30;;;24.50;59.30;;;;;;5003699;28;20029;-64
2022/10/30 12:15:37;;;;;;;6.10;3.30;;;24.50;59.20;;;;;;5009674;28;20030;-64
2022/10/30 12:18:07;;;;;;;8.65;3.60;;;24.60;59.20;;;;;;5006030;28;20022;-64
2022/10/30 12:20:36;;;;;;;6.25;2.65;;;24.70;58.60;;;;;;5000133;28;20034;-64
2022/10/30 12:23:28;;;;;;;14.35;3.78;;;24.80;58.30;;;;;;5000338;28;20506;-64
2022/10/30 12:25:58;;;;;;;17.13;3.08;;;24.90;58.40;;;;;;5002427;28;20046;-63
2022/10/30 12:28:27;;;;;;;8.27;3.20;;;25.00;58.10;;;;;;5007024;28;20025;-64
2022/10/30 12:31:02;;;;;;;9.68;2.70;;;25.10;58.20;;;;;;5005666;28;20031;-64
2022/10/30 12:34:00;;;;;;;8.27;2.80;;;25.20;57.60;;;;;;5000749;28;20071;-64
2022/10/30 12:36:32;;;;;;;10.32;3.28;;;25.20;57.40;;;;;;4992483;28;20102;-64
2022/10/30 12:39:22;;;;;;;9.82;2.80;;;25.40;56.80;;;;;;5003057;28;20023;-64
2022/10/30 12:42:05;;;;;;;6.80;3.03;;;25.40;56.50;;;;;;5001304;28;20041;-62
2022/10/30 12:44:40;;;;;;;7.57;2.75;;;25.60;56.40;;;;;;5000259;28;20062;-64
2022/10/30 12:47:13;;;;;;;8.80;2.70;;;25.70;56.30;;;;;;5000040;28;20049;-63
2022/10/30 12:49:44;;;;;;;9.63;2.70;;;25.80;56.20;;;;;;5000365;28;20045;-64
2022/10/30 12:52:19;;;;;;;9.52;3.20;;;25.80;56.30;;;;;;4997914;28;20285;-64
2022/10/30 12:54:52;;;;;;;13.15;3.35;;;25.90;55.30;;;;;;5007359;28;20101;-62